FWKI/LLW METAR and TAF weather

Enter ICAO airport designator
Station Type Date Time Source
FWKI METAR 2018/01/21 10:00 UTC NOAA

FWKI 211000Z 21003KT 9999 BKN025TCU 26/17 Q1017 NOSIG


Station Type Date Time Source
FWKI Decoded METAR 2018/01/21 10:00 UTC NOAA

Lilongwe International Airport, Malawi (FWKI) 13-47S 033-46E 1229M
Jan 21, 2018 - 05:00 AM EST / 2018.01.21 1000 UTC
Wind: from the SSW (210 degrees) at 3 MPH (3 KT):0
Visibility: greater than 7 mile(s):0
Sky conditions: mostly cloudy
Weather: Towering cumulus clouds observed
Temperature: 78 F (26 C)
Dew Point: 62 F (17 C)
Relative Humidity: 57%
Pressure (altimeter): 30.03 in. Hg (1017 hPa)
ob: FWKI 211000Z 21003KT 9999 BKN025TCU 26/17 Q1017 NOSIG
cycle: 10

Station Type Date Time Source
FWKI TAF 2018/01/21 12:42 UTC NOAA

TAF TAF FWKI 210900Z 2112/2218 11005KT 9999 BKN025
BECMG 2114/2116 15007KT 9999 BKN035
BECMG 2206/2208 09005KT 9999 FEW015 SCT020
BECMG 2210/2212 08010KT 9999 FEW020CB BKN025


Example: see airport list